Time;durP1;ratioP1;P1;durP2;ratioP2;P2;SDS_P1;SDS_P2;PMS_P1;PMS_P2;Temp;Humidity;BMP_temperature;BMP_pressure;BME280_temperature;BME280_humidity;BME280_pressure;Samples;Min_cycle;Max_cycle;Signal;HPM_P1;HPM_P2
2021/08/23 00:01:36;;;;;;;11.10;6.45;;;;;;;21.82;81.70;97732.88;5056233;28;20021;-85
2021/08/23 00:04:02;;;;;;;7.43;5.30;;;;;;;21.86;81.87;97742.09;5055301;28;20020;-84
2021/08/23 00:06:28;;;;;;;6.35;5.35;;;;;;;21.85;82.06;97754.41;5056133;28;20120;-85
2021/08/23 00:08:53;;;;;;;8.18;6.00;;;;;;;21.84;82.49;97758.38;5056836;28;20025;-84
2021/08/23 00:11:18;;;;;;;7.60;5.72;;;;;;;21.84;82.65;97769.50;5066486;28;20084;-83
2021/08/23 00:13:44;;;;;;;7.85;5.55;;;;;;;21.88;82.45;97762.03;5070562;28;20032;-82
2021/08/23 00:16:09;;;;;;;12.23;6.43;;;;;;;21.73;83.38;97758.22;5056528;28;20074;-84
2021/08/23 00:18:35;;;;;;;7.00;4.72;;;;;;;21.71;83.80;97762.53;5044970;28;20401;-84
2021/08/23 00:21:10;;;;;;;5.82;5.22;;;;;;;21.72;83.84;97772.50;5051000;28;20049;-84
2021/08/23 00:23:36;;;;;;;6.93;5.82;;;;;;;21.38;84.80;97752.03;5054817;28;20017;-82
2021/08/23 00:26:03;;;;;;;10.40;6.10;;;;;;;21.53;84.80;97778.13;5036635;28;20040;-84
2021/08/23 00:28:28;;;;;;;8.10;5.22;;;;;;;21.53;83.64;97778.13;5054585;28;20033;-84
2021/08/23 00:30:54;;;;;;;7.03;4.85;;;;;;;21.60;82.56;97776.28;5054820;28;20029;-84
2021/08/23 00:33:19;;;;;;;8.02;4.95;;;;;;;21.66;79.91;97768.41;5037995;28;20025;-86
2021/08/23 00:35:44;;;;;;;8.38;3.90;;;;;;;21.69;77.34;97781.59;5059500;28;20021;-89
2021/08/23 00:38:10;;;;;;;11.70;2.97;;;;;;;21.64;76.45;97773.56;5061394;28;20489;-84
2021/08/23 00:40:37;;;;;;;9.05;3.40;;;;;;;21.56;77.06;97766.25;5057692;28;20025;-85
2021/08/23 00:43:03;;;;;;;6.25;2.53;;;;;;;21.51;75.71;97761.00;5036819;28;20753;-80
2021/08/23 00:45:29;;;;;;;8.00;2.40;;;;;;;21.48;75.25;97767.31;5045100;28;20379;-78
2021/08/23 00:47:54;;;;;;;11.27;2.60;;;;;;;21.43;74.97;97768.41;5051478;28;20063;-80
2021/08/23 00:50:20;;;;;;;3.25;1.73;;;;;;;21.38;74.54;97781.84;5031639;28;20057;-81
2021/08/23 00:52:46;;;;;;;4.93;2.10;;;;;;;21.42;73.70;97788.28;5031600;28;20037;-79
2021/08/23 00:55:11;;;;;;;3.13;1.88;;;;;;;21.18;74.47;97798.56;5032070;28;20025;-78
2021/08/23 00:57:40;;;;;;;13.07;1.70;;;;;;;21.08;75.68;97813.03;5031914;28;20044;-80
2021/08/23 01:00:06;;;;;;;9.18;1.30;;;;;;;20.86;75.48;97799.91;5031753;28;20036;-81
2021/08/23 01:02:48;;;;;;;2.25;1.02;;;;;;;20.79;75.00;97791.41;5031505;28;20057;-83
2021/08/23 01:05:30;;;;;;;7.57;2.05;;;;;;;20.72;77.71;97816.28;5013947;28;20040;-81
2021/08/23 01:08:04;;;;;;;5.38;1.42;;;;;;;20.28;83.88;97805.41;5014000;28;20430;-80
2021/08/23 01:10:37;;;;;;;8.85;1.80;;;;;;;19.88;88.68;97804.00;5031970;28;20029;-81
2021/08/23 01:13:05;;;;;;;6.00;1.30;;;;;;;19.70;90.89;97803.59;5031702;28;20033;-79
2021/08/23 01:15:32;;;;;;;3.00;1.35;;;;;;;19.44;92.94;97798.56;5031721;28;20029;-80
2021/08/23 01:17:59;;;;;;;2.85;1.13;;;;;;;19.21;93.77;97801.09;5031925;28;20026;-83
2021/08/23 01:20:25;;;;;;;5.20;1.00;;;;;;;18.99;96.29;97787.00;5031767;28;20116;-83
2021/08/23 01:22:54;;;;;;;4.07;1.02;;;;;;;18.87;96.08;97804.50;5031915;28;20033;-82
2021/08/23 01:25:25;;;;;;;4.10;0.98;;;;;;;18.87;95.54;97793.41;5031339;28;20056;-80
2021/08/23 01:28:09;;;;;;;0.90;0.60;;;;;;;18.87;97.46;97796.19;5031777;28;20029;-82
2021/08/23 01:30:48;;;;;;;1.83;0.73;;;;;;;18.71;98.13;97798.09;5031833;28;20043;-80
2021/08/23 01:33:14;;;;;;;1.90;0.90;;;;;;;18.65;98.55;97802.25;5031712;28;20037;-81
2021/08/23 01:35:39;;;;;;;2.42;0.88;;;;;;;18.64;98.43;97800.66;5013397;28;20033;-83
2021/08/23 01:38:05;;;;;;;2.28;0.90;;;;;;;18.64;97.60;97803.41;5031718;28;20113;-80
2021/08/23 01:40:30;;;;;;;1.17;0.73;;;;;;;18.68;97.60;97809.88;5031248;28;20471;-80
2021/08/23 01:42:56;;;;;;;0.70;0.52;;;;;;;18.70;97.57;97821.44;5031352;28;20112;-83
2021/08/23 01:45:21;;;;;;;1.35;0.70;;;;;;;18.77;96.42;97818.84;5034363;28;20102;-80
2021/08/23 01:47:47;;;;;;;5.57;1.13;;;;;;;18.62;97.86;97816.81;5034788;28;20075;-79
2021/08/23 01:50:12;;;;;;;2.45;1.13;;;;;;;18.84;96.58;97827.38;5031602;28;20053;-82
2021/08/23 01:52:38;;;;;;;0.65;0.60;;;;;;;18.76;95.84;97814.47;5031254;28;20072;-79
2021/08/23 01:55:04;;;;;;;1.10;1.00;;;;;;;18.82;95.81;97826.94;5031343;28;20052;-82
2021/08/23 01:57:30;;;;;;;4.38;1.05;;;;;;;18.86;95.81;97830.59;5031045;28;20074;-78
2021/08/23 01:59:56;;;;;;;1.75;0.77;;;;;;;18.79;93.82;97830.41;5031381;28;20505;-80
2021/08/23 02:02:21;;;;;;;0.45;0.45;;;;;;;18.76;93.36;97831.13;5031176;28;20030;-80
2021/08/23 02:04:47;;;;;;;1.88;0.70;;;;;;;18.70;94.21;97833.31;5031798;28;20030;-82
2021/08/23 02:07:12;;;;;;;1.00;0.80;;;;;;;18.67;94.13;97838.72;5013529;28;20026;-83
2021/08/23 02:09:38;;;;;;;0.52;0.38;;;;;;;18.68;94.05;97845.91;5029934;28;20052;-83
2021/08/23 02:12:04;;;;;;;0.25;0.25;;;;;;;18.59;90.46;97842.47;5029419;28;20078;-81
2021/08/23 02:14:29;;;;;;;0.85;0.40;;;;;;;18.62;91.15;97836.22;5028810;28;20482;-82
2021/08/23 02:16:55;;;;;;;2.83;0.50;;;;;;;18.68;90.71;97837.59;5029711;28;20017;-80
2021/08/23 02:19:21;;;;;;;1.23;0.60;;;;;;;18.67;89.44;97841.50;5030309;28;20029;-81
2021/08/23 02:21:47;;;;;;;0.75;0.20;;;;;;;18.76;88.32;97835.84;5030360;28;20082;-82
2021/08/23 02:24:12;;;;;;;2.15;0.80;;;;;;;18.77;87.74;97846.56;5030991;28;20116;-81
2021/08/23 02:26:38;;;;;;;1.25;0.40;;;;;;;18.78;88.71;97845.41;5032229;28;20457;-82
2021/08/23 02:29:03;;;;;;;0.35;0.35;;;;;;;18.70;89.37;97840.84;5041879;28;20039;-81
2021/08/23 02:31:29;;;;;;;0.98;0.30;;;;;;;18.86;87.97;97855.53;5037068;28;20025;-80
2021/08/23 02:33:54;;;;;;;1.88;0.50;;;;;;;18.77;85.70;97854.06;5031421;28;20124;-83
2021/08/23 02:36:20;;;;;;;0.70;0.40;;;;;;;18.78;86.88;97872.31;5030935;28;20018;-82
2021/08/23 02:38:46;;;;;;;0.10;0.10;;;;;;;18.54;88.79;97862.13;5031920;28;20032;-80
2021/08/23 02:41:12;;;;;;;0.32;0.25;;;;;;;18.54;86.75;97868.44;5030510;28;20033;-83
2021/08/23 02:43:37;;;;;;;0.40;0.40;;;;;;;18.65;85.04;97871.53;5030684;28;20029;-83
2021/08/23 02:46:03;;;;;;;0.20;0.20;;;;;;;18.79;85.07;97869.22;5030938;28;20025;-82
2021/08/23 02:48:28;;;;;;;0.30;0.30;;;;;;;18.83;83.79;97870.09;5030644;28;20069;-80
2021/08/23 02:50:54;;;;;;;0.52;0.32;;;;;;;18.84;84.57;97873.69;5030938;28;20036;-79
2021/08/23 02:53:19;;;;;;;2.95;1.02;;;;;;;18.79;83.62;97874.75;5030502;28;20040;-80
2021/08/23 02:55:44;;;;;;;0.82;0.30;;;;;;;18.81;85.04;97880.75;5030691;28;20025;-80
2021/08/23 02:58:10;;;;;;;0.45;0.25;;;;;;;18.84;83.66;97865.38;5030272;28;20474;-80
2021/08/23 03:00:35;;;;;;;1.00;0.30;;;;;;;18.78;84.40;97875.09;5030466;28;20029;-82
2021/08/23 03:03:00;;;;;;;0.22;0.20;;;;;;;18.69;82.28;97864.16;5030457;28;20951;-81
2021/08/23 03:05:26;;;;;;;0.43;0.10;;;;;;;18.69;82.85;97861.38;5030616;28;20109;-82
2021/08/23 03:07:51;;;;;;;0.52;0.22;;;;;;;18.77;82.58;97860.41;5031795;28;20489;-81
2021/08/23 03:10:17;;;;;;;0.17;0.17;;;;;;;18.86;82.11;97869.41;5033503;28;20065;-80
2021/08/23 03:12:42;;;;;;;0.40;0.20;;;;;;;18.93;80.48;97880.69;5034022;28;20047;-81
2021/08/23 03:15:08;;;;;;;0.15;0.10;;;;;;;18.93;80.60;97877.13;5016146;28;20021;-82
2021/08/23 03:17:34;;;;;;;0.85;0.20;;;;;;;18.91;79.34;97871.94;5033699;28;20363;-82
2021/08/23 03:20:00;;;;;;;0.57;0.30;;;;;;;18.98;79.51;97874.13;5033891;28;20087;-82
2021/08/23 03:22:25;;;;;;;0.10;0.10;;;;;;;19.05;79.02;97875.09;5033913;28;20482;-82
2021/08/23 03:24:51;;;;;;;0.10;0.10;;;;;;;19.05;78.70;97872.34;5034019;28;20030;-80
2021/08/23 03:27:16;;;;;;;1.35;0.20;;;;;;;19.02;78.32;97875.81;5016645;28;20524;-83
2021/08/23 03:29:42;;;;;;;0.28;0.15;;;;;;;19.08;77.94;97871.63;5034156;28;20421;-81
2021/08/23 03:32:08;;;;;;;0.10;0.10;;;;;;;19.13;77.27;97867.81;5033714;28;20037;-81
2021/08/23 03:34:34;;;;;;;0.17;0.17;;;;;;;19.17;76.30;97872.28;5033731;28;20030;-82
2021/08/23 03:37:01;;;;;;;0.10;0.10;;;;;;;19.22;76.98;97883.13;5033862;28;20125;-83
2021/08/23 03:39:26;;;;;;;0.55;0.28;;;;;;;19.26;76.52;97889.56;5017032;28;20029;-80
2021/08/23 03:41:51;;;;;;;0.20;0.20;;;;;;;19.24;76.55;97897.44;5033349;28;20025;-80
2021/08/23 03:44:17;;;;;;;0.40;0.20;;;;;;;19.19;76.74;97919.91;5032778;28;20064;-80
2021/08/23 03:46:42;;;;;;;0.10;0.10;;;;;;;19.18;77.10;97929.38;5015761;28;20125;-83
2021/08/23 03:49:07;;;;;;;0.08;0.08;;;;;;;19.21;77.08;97942.53;5032850;28;20096;-81
2021/08/23 03:51:33;;;;;;;0.20;0.20;;;;;;;19.27;77.38;97954.19;5032936;28;20075;-80
2021/08/23 03:53:58;;;;;;;1.45;0.30;;;;;;;19.27;76.78;97952.22;5033055;28;20513;-80
2021/08/23 03:56:24;;;;;;;0.28;0.17;;;;;;;19.15;76.71;97960.59;5033109;28;20029;-81
2021/08/23 03:58:50;;;;;;;0.50;0.50;;;;;;;19.13;76.91;97968.47;5032871;28;20033;-83
2021/08/23 04:01:16;;;;;;;0.00;0.00;;;;;;;19.19;75.22;97958.72;5015481;28;20063;-80
2021/08/23 04:03:41;;;;;;;0.90;0.52;;;;;;;19.09;76.32;97931.50;5032656;28;20034;-82
2021/08/23 04:06:11;;;;;;;0.55;0.13;;;;;;;18.84;77.29;97891.13;5033084;28;20034;-83
2021/08/23 04:08:36;;;;;;;2.35;1.10;;;;;;;18.57;78.80;97880.81;5033478;28;20382;-81
2021/08/23 04:11:02;;;;;;;4.28;1.52;;;;;;;18.41;81.93;97902.03;5032970;28;20022;-79
2021/08/23 04:13:28;;;;;;;4.65;1.80;;;;;;;18.42;85.09;97936.91;5032961;28;20125;-81
2021/08/23 04:15:55;;;;;;;3.47;0.73;;;;;;;18.28;88.39;97950.28;5032934;28;20397;-81
2021/08/23 04:18:20;;;;;;;0.50;0.32;;;;;;;17.79;90.52;97930.84;5032573;28;20049;-82
2021/08/23 04:20:46;;;;;;;0.47;0.20;;;;;;;17.55;93.62;97944.59;5030003;28;20108;-80
2021/08/23 04:23:12;;;;;;;3.30;2.15;;;;;;;17.58;95.44;97966.03;5014224;28;20028;-80
2021/08/23 04:25:38;;;;;;;3.58;1.15;;;;;;;17.65;96.64;98005.84;5012785;28;20030;-83
2021/08/23 04:28:03;;;;;;;2.05;0.60;;;;;;;17.40;97.81;98011.56;5025379;28;20030;-80
2021/08/23 04:30:29;;;;;;;3.97;1.40;;;;;;;17.31;98.38;98014.41;5033180;28;20026;-82
2021/08/23 04:32:54;;;;;;;4.78;1.00;;;;;;;17.37;98.44;98023.31;5031738;28;20029;-82
2021/08/23 04:35:20;;;;;;;3.45;1.42;;;;;;;17.49;98.30;98015.06;5032195;28;20036;-83
2021/08/23 04:37:45;;;;;;;1.45;0.73;;;;;;;17.39;96.30;98043.94;5032431;28;20474;-84
2021/08/23 04:40:11;;;;;;;2.97;1.40;;;;;;;17.42;99.13;98043.28;5032676;28;20021;-85
2021/08/23 04:42:38;;;;;;;4.07;2.42;;;;;;;17.35;98.99;98031.97;5033349;28;20022;-83
2021/08/23 04:45:04;;;;;;;1.80;0.93;;;;;;;17.35;98.53;98025.63;5045544;28;20064;-80
2021/08/23 04:47:29;;;;;;;3.92;1.30;;;;;;;17.15;98.94;97991.28;5039036;28;20030;-80
2021/08/23 04:49:54;;;;;;;4.68;1.27;;;;;;;17.19;98.91;97999.72;5048383;28;20041;-82
2021/08/23 04:52:20;;;;;;;4.25;1.08;;;;;;;17.09;99.90;98020.28;5052111;28;20036;-79
2021/08/23 04:54:45;;;;;;;2.95;0.43;;;;;;;17.35;99.73;98031.16;5052164;28;20537;-80
2021/08/23 04:57:11;;;;;;;1.00;0.50;;;;;;;17.41;99.32;98025.06;5052268;28;20024;-84
2021/08/23 04:59:36;;;;;;;3.08;0.80;;;;;;;17.54;99.12;98009.34;5052686;28;20079;-85
2021/08/23 05:02:02;;;;;;;3.83;0.80;;;;;;;17.49;98.44;98013.13;5053726;28;20032;-82
2021/08/23 05:04:27;;;;;;;2.90;0.82;;;;;;;17.24;99.08;97996.75;5035160;28;20749;-85
2021/08/23 05:06:53;;;;;;;3.13;0.70;;;;;;;17.17;100.00;98002.00;5053002;28;20371;-84
2021/08/23 05:09:19;;;;;;;2.50;1.00;;;;;;;17.16;99.70;98017.78;5035916;28;20033;-82
2021/08/23 05:11:44;;;;;;;2.72;0.95;;;;;;;17.22;100.00;98032.22;5052048;28;20036;-81
2021/08/23 05:14:10;;;;;;;2.60;1.27;;;;;;;17.40;100.00;98039.22;5055962;28;20397;-82
2021/08/23 05:16:36;;;;;;;1.60;0.82;;;;;;;17.53;100.00;98032.63;5051034;28;20029;-78
2021/08/23 05:19:01;;;;;;;3.65;0.70;;;;;;;17.32;100.00;98029.84;5051497;28;20033;-76
2021/08/23 05:21:27;;;;;;;2.13;1.02;;;;;;;17.18;99.05;98022.97;5050512;28;20025;-76
2021/08/23 05:23:52;;;;;;;3.42;0.98;;;;;;;17.27;99.53;98045.84;5050963;28;20478;-76
2021/08/23 05:26:17;;;;;;;4.10;1.17;;;;;;;17.48;100.00;98052.16;5050465;28;20525;-75
2021/08/23 05:28:43;;;;;;;1.30;0.80;;;;;;;17.42;100.00;98048.00;5050429;28;20029;-72
2021/08/23 05:31:08;;;;;;;3.53;0.85;;;;;;;17.23;100.00;98034.63;5049605;28;20025;-72
2021/08/23 05:33:34;;;;;;;1.52;1.05;;;;;;;17.12;100.00;98033.44;5050195;28;20021;-73
2021/08/23 05:35:59;;;;;;;3.08;1.25;;;;;;;17.47;100.00;98039.50;5032500;28;20501;-74
2021/08/23 05:38:25;;;;;;;4.03;1.25;;;;;;;17.27;100.00;98034.78;5050432;28;20016;-72
2021/08/23 05:40:50;;;;;;;4.10;1.40;;;;;;;17.54;100.00;98045.31;5049870;28;20059;-73
2021/08/23 05:43:16;;;;;;;3.33;1.40;;;;;;;17.59;100.00;98053.44;5050020;28;20043;-73
2021/08/23 05:45:42;;;;;;;4.38;1.02;;;;;;;17.61;99.39;98060.22;5050067;28;20021;-73
2021/08/23 05:48:08;;;;;;;4.97;1.10;;;;;;;17.17;100.00;98063.63;5048739;28;20044;-73
2021/08/23 05:50:34;;;;;;;3.47;1.33;;;;;;;17.36;100.00;98066.75;5049319;28;20029;-73
2021/08/23 05:53:00;;;;;;;0.70;0.70;;;;;;;17.32;100.00;98054.72;5031359;28;20040;-72
2021/08/23 05:55:25;;;;;;;1.63;1.08;;;;;;;17.35;100.00;98037.50;5049504;28;20037;-73
2021/08/23 05:57:50;;;;;;;3.58;0.73;;;;;;;17.35;100.00;98056.03;5049479;28;20013;-73
2021/08/23 06:00:17;;;;;;;2.72;0.95;;;;;;;17.46;100.00;98054.47;5049465;28;20024;-73
2021/08/23 06:02:43;;;;;;;3.00;1.20;;;;;;;17.17;100.00;98043.47;5031386;28;20060;-74
2021/08/23 06:05:11;;;;;;;2.85;1.00;;;;;;;16.98;100.00;98030.91;5049931;28;20474;-73
2021/08/23 06:07:37;;;;;;;1.38;0.82;;;;;;;17.06;100.00;98034.78;5032155;28;20029;-73
2021/08/23 06:10:03;;;;;;;2.75;0.77;;;;;;;17.07;100.00;98030.88;5050091;28;20047;-73
2021/08/23 06:12:28;;;;;;;1.92;0.77;;;;;;;17.05;100.00;98028.44;5049378;28;20040;-74
2021/08/23 06:14:54;;;;;;;1.13;0.70;;;;;;;17.13;100.00;98035.84;5050117;28;20041;-73
2021/08/23 06:17:19;;;;;;;2.88;0.95;;;;;;;17.27;100.00;98043.06;5049444;28;20037;-73
2021/08/23 06:19:44;;;;;;;4.45;1.60;;;;;;;17.42;98.44;98042.47;5050232;28;20029;-73
2021/08/23 06:22:10;;;;;;;0.70;0.70;;;;;;;17.43;98.87;98049.63;5032136;28;20033;-73
2021/08/23 06:24:35;;;;;;;2.38;1.35;;;;;;;17.26;97.13;98056.06;5067606;28;20039;-73
2021/08/23 06:27:01;;;;;;;2.25;1.02;;;;;;;17.21;99.44;98053.53;5068216;28;20056;-73
2021/08/23 06:29:26;;;;;;;1.77;1.15;;;;;;;17.22;100.00;98049.63;5069264;28;20056;-73
2021/08/23 06:31:51;;;;;;;1.88;1.30;;;;;;;17.24;100.00;98058.38;5069749;28;20465;-73
2021/08/23 06:34:17;;;;;;;2.15;1.20;;;;;;;17.19;99.48;98072.41;5069665;28;20020;-73
2021/08/23 06:36:45;;;;;;;3.55;1.52;;;;;;;17.45;100.00;98092.38;5069805;28;20028;-73
2021/08/23 06:39:10;;;;;;;2.88;1.10;;;;;;;17.48;100.00;98102.78;5070195;28;20033;-72
2021/08/23 06:41:36;;;;;;;2.83;1.55;;;;;;;17.55;100.00;98110.56;5070625;28;20024;-74
2021/08/23 06:44:01;;;;;;;1.85;1.02;;;;;;;17.45;100.00;98114.50;5072369;28;20035;-73
2021/08/23 06:46:26;;;;;;;4.78;2.03;;;;;;;17.48;100.00;98108.31;5073517;28;20047;-73
2021/08/23 06:48:52;;;;;;;4.05;1.75;;;;;;;17.38;100.00;98080.25;5073320;28;20055;-73
2021/08/23 06:51:20;;;;;;;5.80;2.03;;;;;;;17.35;100.00;98056.03;5073576;28;20025;-73
2021/08/23 06:53:47;;;;;;;4.22;1.27;;;;;;;17.34;100.00;98065.47;5073371;28;20028;-73
2021/08/23 06:56:13;;;;;;;2.50;1.33;;;;;;;17.27;100.00;98077.06;5073253;28;20059;-74
2021/08/23 06:58:38;;;;;;;3.42;1.23;;;;;;;17.08;100.00;98083.03;5074711;28;20131;-74
2021/08/23 07:01:03;;;;;;;3.45;1.27;;;;;;;16.97;100.00;98070.75;5077637;28;20108;-74
2021/08/23 07:03:29;;;;;;;2.95;1.40;;;;;;;16.88;100.00;98064.47;5073850;28;20416;-73
2021/08/23 07:05:54;;;;;;;4.80;1.17;;;;;;;16.87;100.00;98039.94;5073342;28;20491;-76
2021/08/23 07:08:20;;;;;;;3.30;1.35;;;;;;;16.86;100.00;98041.88;5073278;28;20505;-74
2021/08/23 07:10:45;;;;;;;4.40;1.17;;;;;;;16.57;100.00;98050.16;5073807;28;20470;-78
2021/08/23 07:13:11;;;;;;;3.33;1.58;;;;;;;16.54;100.00;98073.72;5073614;28;20515;-77
2021/08/23 07:15:37;;;;;;;2.17;1.55;;;;;;;16.55;100.00;98096.63;5074068;28;20070;-78
2021/08/23 07:18:03;;;;;;;5.15;1.67;;;;;;;16.69;100.00;98093.66;5059685;28;20086;-78
2021/08/23 07:20:28;;;;;;;4.88;2.08;;;;;;;16.72;100.00;98096.56;5047647;28;20025;-75
2021/08/23 07:22:54;;;;;;;4.53;2.15;;;;;;;16.76;100.00;98094.75;5052652;28;20044;-82
2021/08/23 07:25:19;;;;;;;3.97;1.35;;;;;;;16.67;100.00;98084.88;5049603;28;20048;-84
2021/08/23 07:27:44;;;;;;;2.15;1.20;;;;;;;16.49;100.00;98062.84;5046779;28;20108;-81
2021/08/23 07:30:10;;;;;;;2.58;1.10;;;;;;;16.32;100.00;98071.16;5048124;28;20027;-85
2021/08/23 07:32:40;;;;;;;4.65;1.33;;;;;;;16.23;100.00;98084.19;5047975;28;20021;-79
2021/08/23 07:35:06;;;;;;;2.38;1.30;;;;;;;16.16;100.00;98099.66;5047936;28;20017;-83
2021/08/23 07:37:35;;;;;;;3.65;1.35;;;;;;;16.22;100.00;98099.16;5047883;28;20517;-81
2021/08/23 07:40:01;;;;;;;2.70;1.23;;;;;;;16.32;100.00;98106.28;5047491;28;20036;-79
2021/08/23 07:42:26;;;;;;;2.92;1.13;;;;;;;16.18;100.00;98117.50;5047634;28;20025;-84
2021/08/23 07:44:52;;;;;;;3.38;2.25;;;;;;;16.07;100.00;98122.53;5053053;28;20016;-82
2021/08/23 07:47:17;;;;;;;1.95;1.30;;;;;;;15.96;100.00;98129.53;5047152;28;20025;-81
2021/08/23 07:49:43;;;;;;;4.03;1.55;;;;;;;15.98;100.00;98131.97;5046330;28;20044;-82
2021/08/23 07:52:08;;;;;;;1.67;1.13;;;;;;;15.92;100.00;98123.03;5049302;28;20021;-83
2021/08/23 07:54:36;;;;;;;4.07;1.67;;;;;;;15.79;100.00;98115.75;5051463;28;20028;-82
2021/08/23 07:57:02;;;;;;;2.13;1.20;;;;;;;15.80;100.00;98100.81;5049148;28;20032;-84
2021/08/23 07:59:28;;;;;;;0.98;0.80;;;;;;;15.82;100.00;98095.78;5048295;28;20061;-81
2021/08/23 08:01:53;;;;;;;2.58;1.52;;;;;;;15.87;100.00;98105.84;5048171;28;20784;-81
2021/08/23 08:04:19;;;;;;;2.22;1.33;;;;;;;15.86;100.00;98113.31;5044606;28;20689;-83
2021/08/23 08:06:44;;;;;;;1.90;1.33;;;;;;;15.87;100.00;98131.50;5029342;28;20753;-83
2021/08/23 08:09:11;;;;;;;1.20;1.10;;;;;;;15.86;100.00;98137.31;5047424;28;20496;-83
2021/08/23 08:11:37;;;;;;;5.10;1.17;;;;;;;16.09;100.00;98127.75;5046343;28;20025;-83
2021/08/23 08:14:02;;;;;;;4.35;1.55;;;;;;;15.94;100.00;98131.78;5043333;28;20535;-84
2021/08/23 08:16:28;;;;;;;2.70;1.15;;;;;;;16.00;100.00;98149.84;5047870;28;20028;-83
2021/08/23 08:18:54;;;;;;;4.07;1.00;;;;;;;15.92;100.00;98160.84;5050228;28;20041;-87
2021/08/23 08:21:21;;;;;;;3.10;1.10;;;;;;;15.90;100.00;98166.72;5047618;28;20110;-83
2021/08/23 08:23:47;;;;;;;3.15;1.15;;;;;;;15.98;100.00;98173.34;5046071;28;20029;-84
2021/08/23 08:26:13;;;;;;;2.75;1.00;;;;;;;15.97;100.00;98169.81;5052017;28;20020;-84
2021/08/23 08:28:38;;;;;;;2.88;1.60;;;;;;;15.73;100.00;98168.63;5033474;28;20436;-82
2021/08/23 08:31:03;;;;;;;1.55;1.15;;;;;;;15.84;100.00;98167.19;5050881;28;20075;-82
2021/08/23 08:33:29;;;;;;;1.38;0.85;;;;;;;15.79;100.00;98162.63;5042691;28;20826;-86
2021/08/23 08:35:58;;;;;;;3.47;1.30;;;;;;;15.86;100.00;98162.97;5050527;28;20102;-83
2021/08/23 08:38:25;;;;;;;3.05;1.70;;;;;;;15.94;100.00;98175.16;5032134;28;20059;-84
2021/08/23 08:40:51;;;;;;;3.45;1.85;;;;;;;16.02;100.00;98194.47;5045750;28;20017;-82
2021/08/23 08:43:16;;;;;;;2.60;1.48;;;;;;;15.97;100.00;98215.88;5042234;28;20040;-84
2021/08/23 08:45:43;;;;;;;1.17;1.00;;;;;;;15.87;100.00;98208.75;5041165;28;20025;-81
2021/08/23 08:48:09;;;;;;;5.10;1.65;;;;;;;15.79;100.00;98201.25;5048085;28;20024;-84
2021/08/23 08:50:34;;;;;;;2.20;1.15;;;;;;;15.76;100.00;98196.38;5032365;28;20029;-84
2021/08/23 08:53:05;;;;;;;2.10;1.20;;;;;;;15.88;100.00;98196.56;5042623;28;20029;-83
2021/08/23 08:55:35;;;;;;;3.22;1.80;;;;;;;15.90;100.00;98205.34;5039949;28;20112;-83
2021/08/23 08:58:01;;;;;;;4.70;1.70;;;;;;;16.11;100.00;98212.94;5047764;28;20029;-83
2021/08/23 09:00:27;;;;;;;2.13;1.27;;;;;;;16.07;100.00;98213.59;5047176;28;20120;-82
2021/08/23 09:02:56;;;;;;;4.25;0.82;;;;;;;16.02;100.00;98199.97;5047801;28;20124;-79
2021/08/23 09:05:22;;;;;;;2.67;1.20;;;;;;;16.08;100.00;98212.47;5038965;28;20033;-82
2021/08/23 09:07:49;;;;;;;1.65;1.08;;;;;;;15.99;100.00;98205.34;5031858;28;20052;-82
2021/08/23 09:10:23;;;;;;;4.13;1.30;;;;;;;16.12;100.00;98222.88;5050181;28;21243;-80
2021/08/23 09:13:07;;;;;;;2.35;1.25;;;;;;;16.17;100.00;98226.28;5049376;28;20029;-81
2021/08/23 09:15:34;;;;;;;3.22;1.90;;;;;;;16.10;100.00;98214.09;5054995;28;20100;-81
2021/08/23 09:18:02;;;;;;;2.00;1.27;;;;;;;16.08;100.00;98204.19;5042905;28;20033;-81
2021/08/23 09:20:28;;;;;;;3.72;1.45;;;;;;;16.08;100.00;98198.69;5042646;28;20026;-83
2021/08/23 09:22:53;;;;;;;1.65;1.38;;;;;;;15.99;100.00;98195.09;5048472;28;20041;-81
2021/08/23 09:25:24;;;;;;;3.78;1.50;;;;;;;16.09;100.00;98205.00;5049643;28;20017;-82
2021/08/23 09:28:00;;;;;;;1.63;1.48;;;;;;;16.24;100.00;98207.28;5041942;28;20071;-81
2021/08/23 09:30:26;;;;;;;4.60;1.70;;;;;;;16.46;100.00;98214.56;5040183;28;20359;-82
2021/08/23 09:32:51;;;;;;;4.47;1.48;;;;;;;16.26;100.00;98205.00;5048820;28;20059;-79
2021/08/23 09:35:33;;;;;;;2.42;1.52;;;;;;;16.15;100.00;98189.09;5040905;28;20123;-83
2021/08/23 09:37:59;;;;;;;2.60;1.30;;;;;;;16.15;100.00;98191.84;5049426;28;20013;-80
2021/08/23 09:40:27;;;;;;;3.42;1.30;;;;;;;16.27;100.00;98192.81;5043318;28;20071;-81
2021/08/23 09:43:08;;;;;;;3.38;2.03;;;;;;;16.08;100.00;98198.69;5041484;28;20108;-79
2021/08/23 09:45:34;;;;;;;3.78;1.88;;;;;;;16.09;100.00;98199.50;5048762;28;20037;-80
2021/08/23 09:48:01;;;;;;;3.45;2.20;;;;;;;16.15;100.00;98202.91;5046207;28;20028;-82
2021/08/23 09:50:44;;;;;;;4.20;1.75;;;;;;;16.07;100.00;98207.28;5041674;28;20053;-79
2021/08/23 09:53:14;;;;;;;4.20;1.60;;;;;;;16.02;100.00;98205.50;5052635;28;20063;-81
2021/08/23 09:55:45;;;;;;;2.88;1.40;;;;;;;15.83;100.00;98207.75;5044631;28;20035;-81
2021/08/23 09:58:11;;;;;;;2.55;1.23;;;;;;;15.73;100.00;98205.31;5046231;28;20032;-83
2021/08/23 10:00:38;;;;;;;1.73;1.40;;;;;;;15.71;100.00;98206.78;5044413;28;20469;-84
2021/08/23 10:03:29;;;;;;;3.70;1.50;;;;;;;15.65;100.00;98194.28;5044084;28;20031;-80
2021/08/23 10:05:55;;;;;;;3.20;1.80;;;;;;;15.70;100.00;98207.88;5025417;28;20055;-81
2021/08/23 10:08:24;;;;;;;1.95;1.58;;;;;;;15.56;100.00;98197.03;5049417;28;20099;-79
2021/08/23 10:10:56;;;;;;;1.63;1.30;;;;;;;15.57;100.00;98212.41;5050133;28;20031;-82
2021/08/23 10:13:25;;;;;;;2.03;1.48;;;;;;;15.61;100.00;98215.34;5047689;28;20028;-84
2021/08/23 10:15:50;;;;;;;1.98;1.60;;;;;;;15.61;100.00;98218.09;5049597;28;20025;-81
2021/08/23 10:18:16;;;;;;;4.90;1.58;;;;;;;15.57;100.00;98223.44;5053413;28;20016;-82
2021/08/23 10:20:42;;;;;;;3.03;1.40;;;;;;;15.66;100.00;98229.81;5055257;28;20024;-82
2021/08/23 10:23:14;;;;;;;3.63;1.40;;;;;;;15.68;100.00;98230.28;5056696;28;20028;-84
2021/08/23 10:25:40;;;;;;;5.75;1.75;;;;;;;15.77;100.00;98236.63;5056708;28;20028;-82
2021/08/23 10:28:12;;;;;;;2.33;1.13;;;;;;;15.80;100.00;98232.41;5057058;28;20124;-84
2021/08/23 10:30:38;;;;;;;3.00;1.67;;;;;;;15.86;100.00;98236.63;5058358;28;20021;-85
2021/08/23 10:33:11;;;;;;;4.88;2.00;;;;;;;15.90;100.00;98224.66;5058670;28;20092;-85
2021/08/23 10:35:49;;;;;;;3.42;2.00;;;;;;;15.87;100.00;98230.81;5063464;28;20013;-87
2021/08/23 10:38:24;;;;;;;4.22;2.00;;;;;;;15.85;100.00;98230.31;5043895;28;20037;-86
2021/08/23 10:41:11;;;;;;;4.10;2.03;;;;;;;15.86;100.00;98231.94;5059721;28;20044;-84
2021/08/23 10:43:48;;;;;;;6.38;2.10;;;;;;;15.96;100.00;98234.38;5061347;28;20410;-85
2021/08/23 10:46:37;;;;;;;3.40;1.20;;;;;;;16.14;100.00;98239.91;5062528;28;20033;-87
2021/08/23 10:49:13;;;;;;;4.00;1.90;;;;;;;16.01;100.00;98225.94;5063814;28;20064;-86
2021/08/23 10:51:41;;;;;;;6.63;2.15;;;;;;;15.97;100.00;98227.75;5045613;28;20024;-81
2021/08/23 10:54:40;;;;;;;4.82;1.80;;;;;;;15.99;100.00;98221.88;5055578;28;20037;-83
2021/08/23 10:57:08;;;;;;;2.35;1.40;;;;;;;15.95;100.00;98226.41;5001077;28;20071;-83
2021/08/23 10:59:51;;;;;;;2.05;1.27;;;;;;;15.91;100.00;98214.44;5055448;28;20056;-83
2021/08/23 11:02:32;;;;;;;3.42;1.50;;;;;;;15.83;100.00;98221.56;5037542;28;20029;-84
2021/08/23 11:05:07;;;;;;;1.65;1.15;;;;;;;15.87;100.00;98225.28;5055619;28;20029;-87
2021/08/23 11:07:34;;;;;;;1.95;1.48;;;;;;;15.91;100.00;98234.53;5061258;28;20029;-84
2021/08/23 11:10:08;;;;;;;4.82;1.30;;;;;;;15.97;100.00;98243.47;5058018;28;20017;-83
2021/08/23 11:12:41;;;;;;;1.77;1.35;;;;;;;15.89;100.00;98245.09;5036443;28;20040;-81
2021/08/23 11:15:16;;;;;;;2.45;1.25;;;;;;;15.92;100.00;98238.91;5055110;28;20401;-86
2021/08/23 11:17:48;;;;;;;1.13;1.00;;;;;;;15.87;100.00;98233.56;5055202;28;20025;-83
2021/08/23 11:20:21;;;;;;;3.03;1.33;;;;;;;15.83;100.00;98229.81;5054402;28;20032;-85
2021/08/23 11:23:01;;;;;;;1.95;1.08;;;;;;;15.87;100.00;98219.78;5054418;28;20025;-82
2021/08/23 11:25:34;;;;;;;2.08;1.38;;;;;;;15.93;100.00;98217.66;5054029;28;20032;-83
2021/08/23 11:28:03;;;;;;;4.15;1.15;;;;;;;15.87;100.00;98205.97;5036986;28;20025;-83
2021/08/23 11:30:38;;;;;;;3.03;1.13;;;;;;;15.78;100.00;98205.16;5050401;28;20025;-83